Time;durP1;ratioP1;P1;durP2;ratioP2;P2;SDS_P1;SDS_P2;PMS_P1;PMS_P2;Temp;Humidity;BMP_temperature;BMP_pressure;BME280_temperature;BME280_humidity;BME280_pressure;Samples;Min_cycle;Max_cycle;Signal;HPM_P1;HPM_P2
2024/01/08 00:10:18;;;;;;;24.70;8.07;;;;;;;-147.20;100.00;63046.97;32068356;27;34392;-67
2024/01/08 00:25:24;;;;;;;15.02;7.97;;;;;;;-147.20;100.00;63046.97;32066869;27;35946;-67
2024/01/08 00:40:24;;;;;;;13.02;7.75;;;;;;;-147.20;100.00;63046.97;32065970;27;20119;-67
2024/01/08 00:55:24;;;;;;;13.45;8.10;;;;;;;-147.20;100.00;63046.97;32063617;27;34705;-66
2024/01/08 01:10:25;;;;;;;13.45;8.13;;;;;;;-147.20;100.00;63046.97;32061949;27;20418;-67
2024/01/08 01:25:25;;;;;;;15.07;8.93;;;;;;;-147.20;100.00;63046.97;32060780;27;34448;-66
2024/01/08 01:40:25;;;;;;;15.95;9.43;;;;;;;-147.20;100.00;63046.97;32059013;27;33514;-66
2024/01/08 01:55:26;;;;;;;19.30;9.95;;;;;;;-147.20;100.00;63046.97;32057509;27;34709;-65
2024/01/08 02:10:26;;;;;;;15.25;9.57;;;;;;;-147.20;100.00;63046.97;32056905;27;20122;-66
2024/01/08 02:25:27;;;;;;;18.33;9.00;;;;;;;-147.20;100.00;63046.97;32055554;27;20038;-66
2024/01/08 02:40:27;;;;;;;14.73;7.78;;;;;;;-147.20;100.00;63046.97;32053495;27;20050;-66
2024/01/08 02:55:28;;;;;;;22.17;9.27;;;;;;;-147.20;100.00;63046.97;32051287;27;20065;-65
2024/01/08 03:10:28;;;;;;;16.38;8.50;;;;;;;-147.20;100.00;63046.97;32048947;27;33741;-66
2024/01/08 03:25:28;;;;;;;18.23;10.38;;;;;;;-147.20;100.00;63046.97;32046935;27;34519;-66
2024/01/08 03:40:28;;;;;;;18.55;9.10;;;;;;;-147.20;100.00;63046.97;32045766;27;33515;-66
2024/01/08 03:55:30;;;;;;;12.13;9.18;;;;;;;-147.20;100.00;63046.97;32044903;27;34809;-65
2024/01/08 04:10:30;;;;;;;19.27;9.55;;;;;;;-147.20;100.00;63046.97;32043543;27;20114;-66
2024/01/08 04:25:30;;;;;;;13.40;8.30;;;;;;;-147.20;100.00;63046.97;32043228;27;34673;-65
2024/01/08 04:40:31;;;;;;;17.33;11.32;;;;;;;-147.20;100.00;63046.97;32048561;27;20407;-66
2024/01/08 04:55:31;;;;;;;16.42;8.50;;;;;;;-147.20;100.00;63046.97;32062098;27;34631;-64
2024/01/08 05:10:31;;;;;;;16.27;10.07;;;;;;;-147.20;100.00;63046.97;32060079;27;34736;-67
2024/01/08 05:25:34;;;;;;;22.20;9.30;;;;;;;-147.20;100.00;63046.97;32055799;27;35701;-65
2024/01/08 05:40:34;;;;;;;20.97;10.57;;;;;;;-147.20;100.00;63046.97;32055337;27;20127;-65
2024/01/08 05:55:34;;;;;;;16.53;9.33;;;;;;;-147.20;100.00;63046.97;32051374;27;33854;-67
2024/01/08 06:10:35;;;;;;;16.13;8.37;;;;;;;-147.20;100.00;63046.97;32051153;27;20038;-66
2024/01/08 06:25:35;;;;;;;15.20;8.50;;;;;;;-147.20;100.00;63046.97;32051048;27;36368;-65
2024/01/08 06:40:36;;;;;;;16.43;9.37;;;;;;;-147.20;100.00;63046.97;32049636;27;34640;-65
2024/01/08 06:55:36;;;;;;;12.60;7.90;;;;;;;-147.20;100.00;63046.97;32047986;27;20501;-66
2024/01/08 07:10:37;;;;;;;11.73;7.80;;;;;;;-147.20;100.00;63046.97;32046628;27;20277;-66
2024/01/08 07:25:38;;;;;;;11.00;6.43;;;;;;;-147.20;100.00;63046.97;32045287;27;20042;-65
2024/01/08 07:40:38;;;;;;;16.30;10.10;;;;;;;-147.20;100.00;63046.97;32043019;27;20104;-65
2024/01/08 07:55:38;;;;;;;13.60;8.13;;;;;;;-147.20;100.00;63046.97;32039446;27;34819;-65
2024/01/08 08:10:39;;;;;;;9.30;5.53;;;;;;;-147.20;100.00;63046.97;32041572;27;30167;-66
2024/01/08 08:25:40;;;;;;;9.57;6.38;;;;;;;-147.20;100.00;63046.97;32061020;27;20028;-65
2024/01/08 08:40:41;;;;;;;11.15;6.55;;;;;;;-147.20;100.00;63046.97;32058961;27;20043;-65
2024/01/08 08:55:42;;;;;;;19.60;8.07;;;;;;;-147.20;100.00;63046.97;32058087;27;20037;-66
2024/01/08 09:10:42;;;;;;;15.75;8.65;;;;;;;-147.20;100.00;63046.97;32055231;27;35922;-66
2024/01/08 09:25:43;;;;;;;14.15;10.15;;;;;;;-147.20;100.00;63046.97;32054597;27;20398;-67
2024/01/08 09:40:44;;;;;;;15.18;8.88;;;;;;;-147.20;100.00;63046.97;32055091;27;20104;-65
2024/01/08 09:55:46;;;;;;;20.52;12.24;;;;;;;-147.20;100.00;63046.97;32054112;27;20080;-65
2024/01/08 10:10:47;;;;;;;21.80;12.20;;;;;;;-147.20;100.00;63046.97;32054406;27;20031;-67
2024/01/08 10:25:53;;;;;;;20.73;11.95;;;;;;;-147.20;100.00;63046.97;32050302;27;20031;-63
2024/01/08 10:40:55;;;;;;;24.27;12.25;;;;;;;-147.20;100.00;63046.97;32048124;27;20069;-67
2024/01/08 10:55:56;;;;;;;21.90;12.95;;;;;;;-147.20;100.00;63046.97;32047004;27;20108;-65
2024/01/08 11:11:05;;;;;;;20.67;13.10;;;;;;;-147.20;100.00;63046.97;32046539;27;20031;-65
2024/01/08 11:26:14;;;;;;;24.90;14.77;;;;;;;-147.20;100.00;63046.97;32025853;27;20337;-65
2024/01/08 11:41:14;;;;;;;21.95;16.17;;;;;;;-147.20;100.00;63046.97;32042798;27;20437;-65
2024/01/08 11:56:14;;;;;;;22.00;14.52;;;;;;;-147.20;100.00;63046.97;32041324;27;34612;-65
2024/01/08 12:11:15;;;;;;;23.92;16.30;;;;;;;-147.20;100.00;63046.97;32040712;27;20092;-65
2024/01/08 12:26:18;;;;;;;29.00;15.93;;;;;;;-147.20;100.00;63046.97;32039775;27;35493;-65
2024/01/08 12:41:20;;;;;;;29.00;17.38;;;;;;;-147.20;100.00;63046.97;32038498;27;20048;-65
2024/01/08 12:56:20;;;;;;;27.83;17.50;;;;;;;-147.20;100.00;63046.97;32019562;27;20102;-65
2024/01/08 13:11:20;;;;;;;21.50;15.27;;;;;;;-147.20;100.00;63046.97;32056129;27;36054;-64
2024/01/08 13:26:23;;;;;;;25.77;16.23;;;;;;;-147.20;100.00;63046.97;32056375;27;20517;-64
2024/01/08 13:41:23;;;;;;;22.38;14.30;;;;;;;-147.20;100.00;63046.97;32053737;27;21007;-65
2024/01/08 13:56:23;;;;;;;25.60;15.70;;;;;;;-147.20;100.00;63046.97;32052410;27;20030;-65
2024/01/08 14:11:24;;;;;;;28.45;16.98;;;;;;;-147.20;100.00;63046.97;32050632;27;35753;-66
2024/01/08 14:26:24;;;;;;;28.48;15.15;;;;;;;-147.20;100.00;63046.97;32051277;27;23654;-66
2024/01/08 14:41:24;;;;;;;38.10;15.75;;;;;;;-147.20;100.00;63046.97;32049960;27;33522;-63
2024/01/08 14:56:24;;;;;;;30.63;14.02;;;;;;;-147.20;100.00;63046.97;32048372;27;35924;-64
2024/01/08 15:11:25;;;;;;;24.65;13.30;;;;;;;-147.20;100.00;63046.97;32044303;27;34877;-64
2024/01/08 15:26:27;;;;;;;22.77;10.93;;;;;;;-147.20;100.00;63046.97;32043796;27;33772;-64
2024/01/08 15:41:27;;;;;;;19.33;10.18;;;;;;;-147.20;100.00;63046.97;32043103;27;20047;-63
2024/01/08 15:56:28;;;;;;;29.00;12.60;;;;;;;-147.20;100.00;63046.97;32042065;27;33632;-64
2024/01/08 16:11:28;;;;;;;17.92;10.35;;;;;;;-147.20;100.00;63046.97;32041711;27;20487;-64
2024/01/08 16:26:28;;;;;;;22.55;12.00;;;;;;;-147.20;100.00;63046.97;32039382;27;20038;-65
2024/01/08 16:41:30;;;;;;;25.23;10.55;;;;;;;-147.20;100.00;63046.97;32054335;27;32577;-65
2024/01/08 16:56:31;;;;;;;25.95;11.40;;;;;;;-147.20;100.00;63046.97;32061863;27;20054;-66
2024/01/08 17:11:31;;;;;;;23.00;11.15;;;;;;;-147.20;100.00;63046.97;32060803;27;20102;-66
2024/01/08 17:26:32;;;;;;;29.17;12.05;;;;;;;-147.20;100.00;63046.97;32055070;27;33512;-65
2024/01/08 17:41:33;;;;;;;19.83;11.63;;;;;;;-147.20;100.00;63046.97;32054704;27;20042;-65
2024/01/08 17:56:40;;;;;;;22.95;9.93;;;;;;;-147.20;100.00;63046.97;32053385;27;20463;-65
2024/01/08 18:11:41;;;;;;;29.23;11.90;;;;;;;-147.20;100.00;63046.97;32050852;27;20027;-65
2024/01/08 18:26:42;;;;;;;14.75;10.38;;;;;;;-147.20;100.00;63046.97;32050166;27;20047;-65
2024/01/08 18:41:43;;;;;;;18.67;8.45;;;;;;;-147.20;100.00;63046.97;32048502;27;34454;-65
2024/01/08 18:56:44;;;;;;;16.63;10.23;;;;;;;-147.20;100.00;63046.97;32047518;27;20042;-64
2024/01/08 19:11:44;;;;;;;17.55;9.55;;;;;;;-147.20;100.00;63046.97;32046687;27;20034;-64
2024/01/08 19:26:44;;;;;;;24.00;9.33;;;;;;;-147.20;100.00;63046.97;32082994;27;27226;-64
2024/01/08 19:41:45;;;;;;;23.07;12.30;;;;;;;-147.20;100.00;63046.97;32138144;27;34588;-64
2024/01/08 19:56:45;;;;;;;23.40;12.93;;;;;;;-147.20;100.00;63046.97;32135799;27;34717;-68
2024/01/08 20:11:46;;;;;;;18.20;12.33;;;;;;;-147.20;100.00;63046.97;32146994;27;20539;-69
2024/01/08 20:26:46;;;;;;;31.40;20.67;;;;;;;-147.20;100.00;63046.97;32160690;27;20496;-68
2024/01/08 20:41:49;;;;;;;36.00;14.40;;;;;;;-147.20;100.00;63046.97;32182973;27;20047;-60
2024/01/08 20:56:49;;;;;;;21.37;11.87;;;;;;;-147.20;100.00;63046.97;32182229;27;20038;-66
2024/01/08 21:11:49;;;;;;;27.67;14.73;;;;;;;-147.20;100.00;63046.97;32166509;27;20026;-73
2024/01/08 21:26:50;;;;;;;21.47;9.87;;;;;;;-147.20;100.00;63046.97;32167821;27;34306;-60
2024/01/08 21:41:50;;;;;;;22.20;11.27;;;;;;;-147.20;100.00;63046.97;32146055;27;21684;-59
2024/01/08 21:56:50;;;;;;;45.77;20.80;;;;;;;-147.20;100.00;63046.97;32149116;27;20472;-63
2024/01/08 22:11:51;;;;;;;21.97;13.50;;;;;;;-147.20;100.00;63046.97;32145690;27;34740;-66
2024/01/08 22:26:51;;;;;;;33.33;16.47;;;;;;;-147.20;100.00;63046.97;32144052;27;34923;-60
2024/01/08 22:41:52;;;;;;;31.70;14.97;;;;;;;-147.20;100.00;63046.97;32172555;27;20039;-60
2024/01/08 22:56:52;;;;;;;26.37;13.17;;;;;;;-147.20;100.00;63046.97;32119143;27;20119;-62
2024/01/08 23:11:52;;;;;;;27.37;14.43;;;;;;;-147.20;100.00;63046.97;32089841;27;20529;-63
2024/01/08 23:26:56;;;;;;;28.43;12.10;;;;;;;-147.20;100.00;63046.97;32129355;27;34908;-72
2024/01/08 23:41:56;;;;;;;28.77;15.77;;;;;;;-147.20;100.00;63046.97;32108988;27;20063;-62
2024/01/08 23:56:57;;;;;;;31.17;12.93;;;;;;;-147.20;100.00;63046.97;32125843;27;33536;-72
